This is the latest recevied weather packets stored in our database for station/object KC9MWQ-13. If no packets are shown the sender has not sent any weather packets the latest 10 day(s).
| Time | Temp. | Humidity | Pressure | Rain* | Wind** | Luminosity | Snow |
|---|---|---|---|---|---|---|---|
| 1777923260 | 22.78° C | 61% | 1004.9 hPa | 0 mm | - | 562 W/m² | - |
| 1777922958 | 23.33° C | 57% | 1004.9 hPa | 0 mm | - | 292 W/m² | - |
| 1777922655 | 23.89° C | 56% | 1004.5 hPa | 0 mm | - | 255 W/m² | - |
| 1777922354 | 23.89° C | 58% | 1004.7 hPa | 0 mm | - | 700 W/m² | - |
| 1777922051 | 23.33° C | 59% | 1004.9 hPa | 0 mm | - | 872 W/m² | - |
| 1777921746 | 22.78° C | 58% | 1004.8 hPa | 0 mm | - | 346 W/m² | - |
| 1777921442 | 22.78° C | 59% | 1004.9 hPa | 0 mm | - | 253 W/m² | - |
| 1777921139 | 23.33° C | 59% | 1005 hPa | 0 mm | - | 275 W/m² | - |
| 1777920837 | 24.44° C | 55% | 1004.9 hPa | 0 mm | - | 177 W/m² | - |
| 1777920533 | 25° C | 55% | 1004.9 hPa | 0 mm | - | 750 W/m² | - |
| 1777920228 | 24.44° C | 56% | 1005.1 hPa | 0 mm | - | 820 W/m² | - |
| 1777919924 | 24.44° C | 56% | 1005 hPa | 0 mm | - | 272 W/m² | - |
| 1777919622 | 23.89° C | 57% | 1005 hPa | 0 mm | - | 762 W/m² | - |
| 1777919319 | 23.89° C | 56% | 1004.9 hPa | 0 mm | - | 642 W/m² | - |
| 1777919017 | 23.89° C | 57% | 1005 hPa | 0 mm | - | 606 W/m² | - |
| 1777918713 | 23.89° C | 58% | 1004.9 hPa | 0 mm | - | 691 W/m² | - |
| 1777918411 | 23.89° C | 61% | 1004.8 hPa | 0 mm | - | 721 W/m² | - |
| 1777918110 | 23.89° C | 58% | 1005.1 hPa | 0 mm | - | 720 W/m² | - |
| 1777917808 | 23.89° C | 58% | 1005.2 hPa | 0 mm | - | 729 W/m² | - |
| 1777917506 | 23.89° C | 59% | 1005.1 hPa | 0 mm | - | 734 W/m² | - |
| 1777917202 | 23.89° C | 60% | 1005.1 hPa | 0 mm | - | 738 W/m² | - |
| 1777916901 | 23.89° C | 60% | 1004.8 hPa | 0 mm | - | 714 W/m² | - |
| 1777916598 | 23.89° C | 60% | 1005.1 hPa | 0 mm | - | 752 W/m² | - |
| 1777916294 | 23.33° C | 61% | 1005 hPa | 0 mm | - | 727 W/m² | - |
| 1777915991 | 23.33° C | 62% | 1005 hPa | 0 mm | - | 722 W/m² | - |
* Rain latest hour (hover to see other rain measurements)
** Current wind speed in m/s (hover to see current wind gust speed)